sensor_id;sensor_type;location;lat;lon;timestamp;P1;durP1;ratioP1;P2;durP2;ratioP2
66619;SDS011;53484;51.356;6.732;2022-11-20T00:02:07;25.98;;;11.93;;
66619;SDS011;53484;51.356;6.732;2022-11-20T00:04:34;27.92;;;12.45;;
66619;SDS011;53484;51.356;6.732;2022-11-20T00:07:01;29.00;;;13.70;;
66619;SDS011;53484;51.356;6.732;2022-11-20T00:09:28;27.90;;;12.93;;
66619;SDS011;53484;51.356;6.732;2022-11-20T00:11:54;25.92;;;12.95;;
66619;SDS011;53484;51.356;6.732;2022-11-20T00:14:20;24.65;;;12.73;;
66619;SDS011;53484;51.356;6.732;2022-11-20T00:16:46;24.58;;;12.68;;
66619;SDS011;53484;51.356;6.732;2022-11-20T00:19:13;27.00;;;11.87;;
66619;SDS011;53484;51.356;6.732;2022-11-20T00:21:39;26.30;;;12.75;;
66619;SDS011;53484;51.356;6.732;2022-11-20T00:24:08;27.20;;;12.73;;
66619;SDS011;53484;51.356;6.732;2022-11-20T00:26:35;25.50;;;12.50;;
66619;SDS011;53484;51.356;6.732;2022-11-20T00:29:02;30.42;;;12.23;;
66619;SDS011;53484;51.356;6.732;2022-11-20T00:31:28;28.13;;;12.87;;
66619;SDS011;53484;51.356;6.732;2022-11-20T00:33:55;28.63;;;13.02;;
66619;SDS011;53484;51.356;6.732;2022-11-20T00:36:22;27.23;;;12.65;;
66619;SDS011;53484;51.356;6.732;2022-11-20T00:38:50;27.80;;;13.50;;
66619;SDS011;53484;51.356;6.732;2022-11-20T00:41:18;29.25;;;13.23;;
66619;SDS011;53484;51.356;6.732;2022-11-20T00:43:44;26.63;;;12.93;;
66619;SDS011;53484;51.356;6.732;2022-11-20T00:46:12;28.48;;;13.60;;
66619;SDS011;53484;51.356;6.732;2022-11-20T00:48:38;24.77;;;12.00;;
66619;SDS011;53484;51.356;6.732;2022-11-20T00:51:05;30.10;;;12.73;;
66619;SDS011;53484;51.356;6.732;2022-11-20T00:53:31;28.25;;;14.27;;
66619;SDS011;53484;51.356;6.732;2022-11-20T00:55:58;27.40;;;12.90;;
66619;SDS011;53484;51.356;6.732;2022-11-20T00:58:28;30.02;;;13.38;;
66619;SDS011;53484;51.356;6.732;2022-11-20T01:00:59;28.65;;;13.70;;
66619;SDS011;53484;51.356;6.732;2022-11-20T01:03:25;26.50;;;13.30;;
66619;SDS011;53484;51.356;6.732;2022-11-20T01:05:52;26.20;;;12.57;;
66619;SDS011;53484;51.356;6.732;2022-11-20T01:08:18;24.77;;;12.57;;
66619;SDS011;53484;51.356;6.732;2022-11-20T01:10:44;27.05;;;12.75;;
66619;SDS011;53484;51.356;6.732;2022-11-20T01:13:10;26.40;;;11.95;;
66619;SDS011;53484;51.356;6.732;2022-11-20T01:15:55;28.33;;;13.27;;
66619;SDS011;53484;51.356;6.732;2022-11-20T01:18:27;25.30;;;13.55;;
66619;SDS011;53484;51.356;6.732;2022-11-20T01:20:53;28.17;;;14.17;;
66619;SDS011;53484;51.356;6.732;2022-11-20T01:23:20;28.27;;;13.07;;
66619;SDS011;53484;51.356;6.732;2022-11-20T01:25:46;27.00;;;12.60;;
66619;SDS011;53484;51.356;6.732;2022-11-20T01:28:12;24.98;;;12.60;;
66619;SDS011;53484;51.356;6.732;2022-11-20T01:30:38;25.25;;;13.00;;
66619;SDS011;53484;51.356;6.732;2022-11-20T01:33:06;26.73;;;13.07;;
66619;SDS011;53484;51.356;6.732;2022-11-20T01:35:33;26.95;;;12.82;;
66619;SDS011;53484;51.356;6.732;2022-11-20T01:37:59;26.15;;;13.75;;
66619;SDS011;53484;51.356;6.732;2022-11-20T01:40:25;27.58;;;13.30;;
66619;SDS011;53484;51.356;6.732;2022-11-20T01:42:53;25.33;;;13.30;;
66619;SDS011;53484;51.356;6.732;2022-11-20T01:48:26;27.25;;;13.13;;
66619;SDS011;53484;51.356;6.732;2022-11-20T01:50:54;26.75;;;13.32;;
66619;SDS011;53484;51.356;6.732;2022-11-20T01:53:21;27.08;;;13.15;;
66619;SDS011;53484;51.356;6.732;2022-11-20T01:55:50;25.65;;;12.90;;
66619;SDS011;53484;51.356;6.732;2022-11-20T01:58:17;26.93;;;12.70;;
66619;SDS011;53484;51.356;6.732;2022-11-20T02:00:45;27.83;;;13.40;;
66619;SDS011;53484;51.356;6.732;2022-11-20T02:03:12;24.77;;;12.73;;
66619;SDS011;53484;51.356;6.732;2022-11-20T02:05:43;26.50;;;13.48;;
66619;SDS011;53484;51.356;6.732;2022-11-20T02:08:11;28.02;;;13.30;;
66619;SDS011;53484;51.356;6.732;2022-11-20T02:10:37;25.10;;;12.93;;
66619;SDS011;53484;51.356;6.732;2022-11-20T02:13:04;28.25;;;13.32;;
66619;SDS011;53484;51.356;6.732;2022-11-20T02:15:47;27.45;;;13.57;;
66619;SDS011;53484;51.356;6.732;2022-11-20T02:18:14;25.45;;;12.88;;
66619;SDS011;53484;51.356;6.732;2022-11-20T02:20:43;27.50;;;13.10;;
66619;SDS011;53484;51.356;6.732;2022-11-20T02:23:11;25.50;;;12.80;;
66619;SDS011;53484;51.356;6.732;2022-11-20T02:25:39;29.75;;;14.15;;
66619;SDS011;53484;51.356;6.732;2022-11-20T02:28:07;25.63;;;12.63;;
66619;SDS011;53484;51.356;6.732;2022-11-20T02:30:34;25.75;;;13.38;;
66619;SDS011;53484;51.356;6.732;2022-11-20T02:33:00;26.70;;;13.48;;
66619;SDS011;53484;51.356;6.732;2022-11-20T02:35:38;26.67;;;13.63;;
66619;SDS011;53484;51.356;6.732;2022-11-20T02:38:05;26.45;;;13.20;;
66619;SDS011;53484;51.356;6.732;2022-11-20T02:40:31;24.23;;;12.60;;
66619;SDS011;53484;51.356;6.732;2022-11-20T02:42:59;22.92;;;12.48;;
66619;SDS011;53484;51.356;6.732;2022-11-20T02:45:25;27.63;;;13.38;;
66619;SDS011;53484;51.356;6.732;2022-11-20T02:47:52;29.17;;;13.23;;
66619;SDS011;53484;51.356;6.732;2022-11-20T02:50:18;26.00;;;13.15;;
66619;SDS011;53484;51.356;6.732;2022-11-20T02:52:46;26.38;;;13.63;;
66619;SDS011;53484;51.356;6.732;2022-11-20T02:55:12;25.95;;;13.48;;
66619;SDS011;53484;51.356;6.732;2022-11-20T02:57:39;30.83;;;14.05;;
66619;SDS011;53484;51.356;6.732;2022-11-20T03:00:07;25.47;;;12.50;;
66619;SDS011;53484;51.356;6.732;2022-11-20T03:02:34;26.13;;;12.10;;
66619;SDS011;53484;51.356;6.732;2022-11-20T03:05:00;26.40;;;13.02;;
66619;SDS011;53484;51.356;6.732;2022-11-20T03:07:26;27.05;;;13.63;;
66619;SDS011;53484;51.356;6.732;2022-11-20T03:09:52;28.00;;;14.82;;
66619;SDS011;53484;51.356;6.732;2022-11-20T03:12:19;27.33;;;13.07;;
66619;SDS011;53484;51.356;6.732;2022-11-20T03:14:45;27.02;;;13.23;;
66619;SDS011;53484;51.356;6.732;2022-11-20T03:17:13;25.45;;;13.60;;
66619;SDS011;53484;51.356;6.732;2022-11-20T03:19:39;25.77;;;12.48;;
66619;SDS011;53484;51.356;6.732;2022-11-20T03:22:05;29.83;;;14.10;;
66619;SDS011;53484;51.356;6.732;2022-11-20T03:24:31;26.33;;;13.37;;
66619;SDS011;53484;51.356;6.732;2022-11-20T03:26:58;28.15;;;13.23;;
66619;SDS011;53484;51.356;6.732;2022-11-20T03:29:24;24.88;;;12.70;;
66619;SDS011;53484;51.356;6.732;2022-11-20T03:31:51;27.60;;;13.05;;
66619;SDS011;53484;51.356;6.732;2022-11-20T03:34:18;27.58;;;13.73;;
66619;SDS011;53484;51.356;6.732;2022-11-20T03:36:44;27.53;;;13.17;;
66619;SDS011;53484;51.356;6.732;2022-11-20T03:39:11;28.75;;;13.95;;
66619;SDS011;53484;51.356;6.732;2022-11-20T03:41:38;27.42;;;12.80;;
66619;SDS011;53484;51.356;6.732;2022-11-20T03:44:05;26.35;;;12.77;;
66619;SDS011;53484;51.356;6.732;2022-11-20T03:46:31;26.27;;;13.30;;
66619;SDS011;53484;51.356;6.732;2022-11-20T03:48:58;26.30;;;13.33;;
66619;SDS011;53484;51.356;6.732;2022-11-20T03:51:26;25.42;;;12.88;;
66619;SDS011;53484;51.356;6.732;2022-11-20T03:53:54;27.17;;;14.30;;
66619;SDS011;53484;51.356;6.732;2022-11-20T03:56:22;24.38;;;12.43;;
66619;SDS011;53484;51.356;6.732;2022-11-20T03:58:48;25.80;;;13.80;;
66619;SDS011;53484;51.356;6.732;2022-11-20T04:01:15;27.50;;;13.30;;
66619;SDS011;53484;51.356;6.732;2022-11-20T04:03:42;27.17;;;14.07;;
66619;SDS011;53484;51.356;6.732;2022-11-20T04:06:09;27.60;;;13.95;;
66619;SDS011;53484;51.356;6.732;2022-11-20T04:08:37;26.58;;;13.93;;
66619;SDS011;53484;51.356;6.732;2022-11-20T04:11:10;29.60;;;15.02;;
66619;SDS011;53484;51.356;6.732;2022-11-20T04:13:37;26.97;;;13.97;;
66619;SDS011;53484;51.356;6.732;2022-11-20T04:16:03;28.42;;;13.70;;
66619;SDS011;53484;51.356;6.732;2022-11-20T04:18:30;31.45;;;16.05;;
66619;SDS011;53484;51.356;6.732;2022-11-20T04:20:56;33.42;;;16.42;;
66619;SDS011;53484;51.356;6.732;2022-11-20T04:23:22;30.30;;;16.38;;
66619;SDS011;53484;51.356;6.732;2022-11-20T04:25:50;31.83;;;16.30;;
66619;SDS011;53484;51.356;6.732;2022-11-20T04:28:16;30.77;;;16.33;;
66619;SDS011;53484;51.356;6.732;2022-11-20T04:30:42;33.78;;;17.15;;
66619;SDS011;53484;51.356;6.732;2022-11-20T04:33:09;33.15;;;17.55;;
66619;SDS011;53484;51.356;6.732;2022-11-20T04:35:35;32.80;;;17.15;;
66619;SDS011;53484;51.356;6.732;2022-11-20T04:38:02;34.77;;;17.53;;
66619;SDS011;53484;51.356;6.732;2022-11-20T04:40:29;34.75;;;18.30;;
66619;SDS011;53484;51.356;6.732;2022-11-20T04:42:56;34.45;;;18.13;;
66619;SDS011;53484;51.356;6.732;2022-11-20T04:45:23;38.97;;;17.52;;
66619;SDS011;53484;51.356;6.732;2022-11-20T04:47:49;35.17;;;17.42;;
66619;SDS011;53484;51.356;6.732;2022-11-20T04:50:15;32.73;;;17.60;;
66619;SDS011;53484;51.356;6.732;2022-11-20T04:52:41;36.40;;;17.75;;
66619;SDS011;53484;51.356;6.732;2022-11-20T04:55:08;34.67;;;17.98;;
66619;SDS011;53484;51.356;6.732;2022-11-20T04:57:34;42.75;;;18.35;;
66619;SDS011;53484;51.356;6.732;2022-11-20T05:00:02;34.03;;;18.38;;
66619;SDS011;53484;51.356;6.732;2022-11-20T05:02:30;31.53;;;16.83;;
66619;SDS011;53484;51.356;6.732;2022-11-20T05:04:56;36.38;;;17.67;;
66619;SDS011;53484;51.356;6.732;2022-11-20T05:07:22;36.88;;;17.80;;
66619;SDS011;53484;51.356;6.732;2022-11-20T05:09:49;38.15;;;18.55;;
66619;SDS011;53484;51.356;6.732;2022-11-20T05:12:15;35.38;;;17.63;;
66619;SDS011;53484;51.356;6.732;2022-11-20T05:14:41;37.10;;;19.00;;
66619;SDS011;53484;51.356;6.732;2022-11-20T05:17:10;37.58;;;18.20;;
66619;SDS011;53484;51.356;6.732;2022-11-20T05:19:37;38.38;;;19.88;;
66619;SDS011;53484;51.356;6.732;2022-11-20T05:22:03;38.08;;;18.55;;
66619;SDS011;53484;51.356;6.732;2022-11-20T05:24:30;44.20;;;20.25;;
66619;SDS011;53484;51.356;6.732;2022-11-20T05:26:56;38.43;;;19.47;;
66619;SDS011;53484;51.356;6.732;2022-11-20T05:29:22;40.42;;;20.77;;
66619;SDS011;53484;51.356;6.732;2022-11-20T05:31:49;39.58;;;19.40;;
66619;SDS011;53484;51.356;6.732;2022-11-20T05:34:16;41.20;;;20.08;;
66619;SDS011;53484;51.356;6.732;2022-11-20T05:36:42;32.40;;;16.88;;
66619;SDS011;53484;51.356;6.732;2022-11-20T05:39:09;33.30;;;16.63;;
66619;SDS011;53484;51.356;6.732;2022-11-20T05:41:35;34.00;;;17.35;;
66619;SDS011;53484;51.356;6.732;2022-11-20T05:44:01;38.10;;;18.55;;
66619;SDS011;53484;51.356;6.732;2022-11-20T05:46:28;35.40;;;18.65;;
66619;SDS011;53484;51.356;6.732;2022-11-20T05:48:54;30.77;;;16.65;;
66619;SDS011;53484;51.356;6.732;2022-11-20T05:51:22;35.13;;;16.60;;
66619;SDS011;53484;51.356;6.732;2022-11-20T05:53:49;31.90;;;16.00;;
66619;SDS011;53484;51.356;6.732;2022-11-20T05:56:16;34.80;;;17.30;;
66619;SDS011;53484;51.356;6.732;2022-11-20T05:58:43;32.03;;;16.67;;
66619;SDS011;53484;51.356;6.732;2022-11-20T06:01:12;33.95;;;17.15;;
66619;SDS011;53484;51.356;6.732;2022-11-20T06:03:38;35.57;;;18.07;;
66619;SDS011;53484;51.356;6.732;2022-11-20T06:06:06;35.40;;;17.67;;
66619;SDS011;53484;51.356;6.732;2022-11-20T06:08:34;38.53;;;18.50;;
66619;SDS011;53484;51.356;6.732;2022-11-20T06:11:02;34.53;;;17.92;;
66619;SDS011;53484;51.356;6.732;2022-11-20T06:13:29;32.67;;;17.38;;
66619;SDS011;53484;51.356;6.732;2022-11-20T06:15:55;31.53;;;17.07;;
66619;SDS011;53484;51.356;6.732;2022-11-20T06:18:21;33.08;;;16.88;;
66619;SDS011;53484;51.356;6.732;2022-11-20T06:20:48;32.97;;;16.83;;
66619;SDS011;53484;51.356;6.732;2022-11-20T06:23:14;35.80;;;18.13;;
66619;SDS011;53484;51.356;6.732;2022-11-20T06:25:42;43.50;;;23.65;;
66619;SDS011;53484;51.356;6.732;2022-11-20T06:28:08;43.77;;;23.40;;
66619;SDS011;53484;51.356;6.732;2022-11-20T06:30:35;35.75;;;18.33;;
66619;SDS011;53484;51.356;6.732;2022-11-20T06:33:01;40.55;;;18.25;;
66619;SDS011;53484;51.356;6.732;2022-11-20T06:35:27;37.65;;;18.85;;
66619;SDS011;53484;51.356;6.732;2022-11-20T06:37:55;34.50;;;17.58;;
66619;SDS011;53484;51.356;6.732;2022-11-20T06:40:21;40.87;;;18.30;;
66619;SDS011;53484;51.356;6.732;2022-11-20T06:42:49;36.15;;;17.77;;
66619;SDS011;53484;51.356;6.732;2022-11-20T06:45:15;32.30;;;17.60;;
66619;SDS011;53484;51.356;6.732;2022-11-20T06:47:41;37.35;;;17.70;;
66619;SDS011;53484;51.356;6.732;2022-11-20T06:50:08;32.22;;;17.83;;
66619;SDS011;53484;51.356;6.732;2022-11-20T06:52:35;38.47;;;18.90;;
66619;SDS011;53484;51.356;6.732;2022-11-20T06:55:02;39.90;;;18.52;;
66619;SDS011;53484;51.356;6.732;2022-11-20T06:57:28;36.78;;;18.38;;
66619;SDS011;53484;51.356;6.732;2022-11-20T06:59:56;38.92;;;17.75;;
66619;SDS011;53484;51.356;6.732;2022-11-20T07:02:22;38.47;;;18.70;;
66619;SDS011;53484;51.356;6.732;2022-11-20T07:04:48;42.10;;;19.93;;
66619;SDS011;53484;51.356;6.732;2022-11-20T07:07:15;40.95;;;19.02;;
66619;SDS011;53484;51.356;6.732;2022-11-20T07:09:41;35.05;;;17.38;;
66619;SDS011;53484;51.356;6.732;2022-11-20T07:12:07;36.22;;;16.73;;
66619;SDS011;53484;51.356;6.732;2022-11-20T07:14:34;33.42;;;16.90;;
66619;SDS011;53484;51.356;6.732;2022-11-20T07:17:02;34.60;;;17.43;;
66619;SDS011;53484;51.356;6.732;2022-11-20T07:19:28;36.13;;;17.33;;
66619;SDS011;53484;51.356;6.732;2022-11-20T07:21:54;35.70;;;18.50;;
66619;SDS011;53484;51.356;6.732;2022-11-20T07:24:21;31.17;;;16.67;;
66619;SDS011;53484;51.356;6.732;2022-11-20T07:26:47;36.75;;;17.50;;
66619;SDS011;53484;51.356;6.732;2022-11-20T07:29:14;39.73;;;18.27;;
66619;SDS011;53484;51.356;6.732;2022-11-20T07:31:40;35.05;;;17.08;;
66619;SDS011;53484;51.356;6.732;2022-11-20T07:34:08;36.60;;;17.83;;
66619;SDS011;53484;51.356;6.732;2022-11-20T07:36:34;33.65;;;17.08;;
66619;SDS011;53484;51.356;6.732;2022-11-20T07:39:00;36.70;;;18.13;;
66619;SDS011;53484;51.356;6.732;2022-11-20T07:41:26;35.70;;;17.33;;
66619;SDS011;53484;51.356;6.732;2022-11-20T07:43:54;34.97;;;17.25;;
66619;SDS011;53484;51.356;6.732;2022-11-20T07:46:20;38.60;;;20.40;;
66619;SDS011;53484;51.356;6.732;2022-11-20T07:48:46;35.30;;;18.77;;
66619;SDS011;53484;51.356;6.732;2022-11-20T07:51:14;37.15;;;19.40;;
66619;SDS011;53484;51.356;6.732;2022-11-20T07:53:40;42.97;;;21.57;;
66619;SDS011;53484;51.356;6.732;2022-11-20T07:56:06;35.05;;;18.70;;
66619;SDS011;53484;51.356;6.732;2022-11-20T07:58:33;33.58;;;17.73;;
66619;SDS011;53484;51.356;6.732;2022-11-20T08:01:02;35.80;;;17.90;;
66619;SDS011;53484;51.356;6.732;2022-11-20T08:03:28;32.90;;;16.88;;
66619;SDS011;53484;51.356;6.732;2022-11-20T08:05:56;31.33;;;16.83;;
66619;SDS011;53484;51.356;6.732;2022-11-20T08:08:25;31.98;;;17.95;;
66619;SDS011;53484;51.356;6.732;2022-11-20T08:10:51;35.75;;;18.63;;
66619;SDS011;53484;51.356;6.732;2022-11-20T08:13:38;33.00;;;17.23;;
66619;SDS011;53484;51.356;6.732;2022-11-20T08:16:22;33.55;;;17.58;;
66619;SDS011;53484;51.356;6.732;2022-11-20T08:18:48;36.30;;;18.43;;
66619;SDS011;53484;51.356;6.732;2022-11-20T08:21:14;32.83;;;17.23;;
66619;SDS011;53484;51.356;6.732;2022-11-20T08:23:42;36.28;;;17.85;;
66619;SDS011;53484;51.356;6.732;2022-11-20T08:26:08;33.47;;;17.77;;
66619;SDS011;53484;51.356;6.732;2022-11-20T08:28:34;33.72;;;17.65;;
66619;SDS011;53484;51.356;6.732;2022-11-20T08:31:01;34.00;;;16.70;;
66619;SDS011;53484;51.356;6.732;2022-11-20T08:33:28;34.30;;;15.95;;
66619;SDS011;53484;51.356;6.732;2022-11-20T08:35:57;34.67;;;17.83;;
66619;SDS011;53484;51.356;6.732;2022-11-20T08:38:24;35.75;;;18.13;;
66619;SDS011;53484;51.356;6.732;2022-11-20T08:40:51;37.63;;;18.17;;
66619;SDS011;53484;51.356;6.732;2022-11-20T08:43:32;33.90;;;16.77;;
66619;SDS011;53484;51.356;6.732;2022-11-20T08:45:58;33.30;;;17.80;;
66619;SDS011;53484;51.356;6.732;2022-11-20T08:48:24;37.20;;;18.52;;
66619;SDS011;53484;51.356;6.732;2022-11-20T08:50:51;38.08;;;18.35;;
66619;SDS011;53484;51.356;6.732;2022-11-20T08:53:17;34.33;;;17.60;;
66619;SDS011;53484;51.356;6.732;2022-11-20T08:55:43;32.00;;;15.37;;
66619;SDS011;53484;51.356;6.732;2022-11-20T08:58:11;33.05;;;17.33;;
66619;SDS011;53484;51.356;6.732;2022-11-20T09:00:37;29.40;;;15.55;;
66619;SDS011;53484;51.356;6.732;2022-11-20T09:03:04;31.15;;;14.95;;
66619;SDS011;53484;51.356;6.732;2022-11-20T09:05:31;28.58;;;15.30;;
66619;SDS011;53484;51.356;6.732;2022-11-20T09:07:57;34.57;;;17.67;;
66619;SDS011;53484;51.356;6.732;2022-11-20T09:10:23;29.58;;;16.05;;
66619;SDS011;53484;51.356;6.732;2022-11-20T09:12:50;33.60;;;17.42;;
66619;SDS011;53484;51.356;6.732;2022-11-20T09:15:18;28.73;;;15.65;;
66619;SDS011;53484;51.356;6.732;2022-11-20T09:17:49;29.23;;;15.15;;
66619;SDS011;53484;51.356;6.732;2022-11-20T09:20:16;31.77;;;14.90;;
66619;SDS011;53484;51.356;6.732;2022-11-20T09:22:42;30.80;;;15.13;;
66619;SDS011;53484;51.356;6.732;2022-11-20T09:25:08;27.20;;;14.55;;
66619;SDS011;53484;51.356;6.732;2022-11-20T09:27:35;28.55;;;14.40;;
66619;SDS011;53484;51.356;6.732;2022-11-20T09:30:01;28.55;;;15.10;;
66619;SDS011;53484;51.356;6.732;2022-11-20T09:32:29;27.83;;;14.63;;
66619;SDS011;53484;51.356;6.732;2022-11-20T09:34:55;29.20;;;15.10;;
66619;SDS011;53484;51.356;6.732;2022-11-20T09:37:21;31.60;;;16.77;;
66619;SDS011;53484;51.356;6.732;2022-11-20T09:39:47;29.70;;;15.32;;
66619;SDS011;53484;51.356;6.732;2022-11-20T09:42:23;29.17;;;14.52;;
66619;SDS011;53484;51.356;6.732;2022-11-20T09:44:58;31.37;;;16.13;;
66619;SDS011;53484;51.356;6.732;2022-11-20T09:47:31;30.80;;;15.50;;
66619;SDS011;53484;51.356;6.732;2022-11-20T09:50:01;30.25;;;15.07;;
66619;SDS011;53484;51.356;6.732;2022-11-20T09:52:30;30.38;;;15.10;;
66619;SDS011;53484;51.356;6.732;2022-11-20T09:54:58;29.88;;;15.48;;
66619;SDS011;53484;51.356;6.732;2022-11-20T09:57:28;27.97;;;13.90;;
66619;SDS011;53484;51.356;6.732;2022-11-20T09:59:58;28.27;;;14.52;;
66619;SDS011;53484;51.356;6.732;2022-11-20T10:02:27;27.98;;;14.25;;
66619;SDS011;53484;51.356;6.732;2022-11-20T10:04:57;32.22;;;15.43;;
66619;SDS011;53484;51.356;6.732;2022-11-20T10:07:27;33.25;;;16.38;;
66619;SDS011;53484;51.356;6.732;2022-11-20T10:09:56;27.47;;;13.67;;
66619;SDS011;53484;51.356;6.732;2022-11-20T10:12:24;23.45;;;12.63;;
66619;SDS011;53484;51.356;6.732;2022-11-20T10:14:56;35.28;;;15.88;;
66619;SDS011;53484;51.356;6.732;2022-11-20T10:17:28;29.23;;;13.68;;
66619;SDS011;53484;51.356;6.732;2022-11-20T10:20:02;37.03;;;16.90;;
66619;SDS011;53484;51.356;6.732;2022-11-20T10:22:40;26.27;;;13.47;;
66619;SDS011;53484;51.356;6.732;2022-11-20T10:25:13;29.63;;;16.40;;
66619;SDS011;53484;51.356;6.732;2022-11-20T10:27:44;31.40;;;18.05;;
66619;SDS011;53484;51.356;6.732;2022-11-20T10:30:15;26.88;;;14.57;;
66619;SDS011;53484;51.356;6.732;2022-11-20T10:32:43;27.13;;;14.70;;
66619;SDS011;53484;51.356;6.732;2022-11-20T10:35:16;28.33;;;14.47;;
66619;SDS011;53484;51.356;6.732;2022-11-20T10:37:45;27.27;;;13.88;;
66619;SDS011;53484;51.356;6.732;2022-11-20T10:40:18;27.67;;;14.32;;
66619;SDS011;53484;51.356;6.732;2022-11-20T10:42:46;26.60;;;14.30;;
66619;SDS011;53484;51.356;6.732;2022-11-20T10:45:13;29.92;;;14.80;;
66619;SDS011;53484;51.356;6.732;2022-11-20T10:47:41;29.10;;;14.20;;
66619;SDS011;53484;51.356;6.732;2022-11-20T10:50:09;28.67;;;15.50;;
66619;SDS011;53484;51.356;6.732;2022-11-20T10:52:40;29.08;;;14.80;;
66619;SDS011;53484;51.356;6.732;2022-11-20T10:55:11;28.85;;;14.40;;
66619;SDS011;53484;51.356;6.732;2022-11-20T10:57:47;33.72;;;15.27;;
66619;SDS011;53484;51.356;6.732;2022-11-20T11:00:17;27.40;;;14.57;;
66619;SDS011;53484;51.356;6.732;2022-11-20T11:02:44;25.85;;;12.10;;
66619;SDS011;53484;51.356;6.732;2022-11-20T11:05:15;26.85;;;11.38;;
66619;SDS011;53484;51.356;6.732;2022-11-20T11:07:44;26.40;;;11.82;;
66619;SDS011;53484;51.356;6.732;2022-11-20T11:10:22;29.95;;;12.98;;
66619;SDS011;53484;51.356;6.732;2022-11-20T11:12:50;32.33;;;13.13;;
66619;SDS011;53484;51.356;6.732;2022-11-20T11:15:25;25.85;;;12.57;;
66619;SDS011;53484;51.356;6.732;2022-11-20T11:17:53;27.25;;;12.77;;
66619;SDS011;53484;51.356;6.732;2022-11-20T11:20:20;29.38;;;13.10;;
66619;SDS011;53484;51.356;6.732;2022-11-20T11:22:48;29.98;;;13.77;;
66619;SDS011;53484;51.356;6.732;2022-11-20T11:25:25;32.33;;;13.47;;
66619;SDS011;53484;51.356;6.732;2022-11-20T11:27:52;34.30;;;13.20;;
66619;SDS011;53484;51.356;6.732;2022-11-20T11:30:20;33.33;;;13.63;;
66619;SDS011;53484;51.356;6.732;2022-11-20T11:32:47;28.60;;;12.82;;
66619;SDS011;53484;51.356;6.732;2022-11-20T11:35:23;29.45;;;13.15;;
66619;SDS011;53484;51.356;6.732;2022-11-20T11:37:51;30.17;;;12.67;;
66619;SDS011;53484;51.356;6.732;2022-11-20T11:40:20;28.20;;;12.02;;
66619;SDS011;53484;51.356;6.732;2022-11-20T11:42:50;26.77;;;12.88;;
66619;SDS011;53484;51.356;6.732;2022-11-20T11:45:17;27.75;;;12.18;;
66619;SDS011;53484;51.356;6.732;2022-11-20T11:47:44;27.67;;;12.47;;
66619;SDS011;53484;51.356;6.732;2022-11-20T11:50:15;27.90;;;12.88;;
66619;SDS011;53484;51.356;6.732;2022-11-20T11:52:43;27.23;;;12.73;;
66619;SDS011;53484;51.356;6.732;2022-11-20T11:55:14;26.48;;;11.77;;
66619;SDS011;53484;51.356;6.732;2022-11-20T11:57:43;25.45;;;11.57;;
66619;SDS011;53484;51.356;6.732;2022-11-20T12:00:14;30.10;;;13.13;;
66619;SDS011;53484;51.356;6.732;2022-11-20T12:02:44;29.50;;;12.88;;
66619;SDS011;53484;51.356;6.732;2022-11-20T12:05:16;27.73;;;11.83;;
66619;SDS011;53484;51.356;6.732;2022-11-20T12:07:45;30.95;;;12.82;;
66619;SDS011;53484;51.356;6.732;2022-11-20T12:10:17;31.90;;;14.38;;
66619;SDS011;53484;51.356;6.732;2022-11-20T12:12:45;26.77;;;13.13;;
66619;SDS011;53484;51.356;6.732;2022-11-20T12:15:14;30.02;;;13.95;;
66619;SDS011;53484;51.356;6.732;2022-11-20T12:17:42;42.03;;;16.67;;
66619;SDS011;53484;51.356;6.732;2022-11-20T12:20:12;29.88;;;13.35;;
66619;SDS011;53484;51.356;6.732;2022-11-20T12:22:41;28.67;;;13.40;;
66619;SDS011;53484;51.356;6.732;2022-11-20T12:25:11;28.30;;;13.45;;
66619;SDS011;53484;51.356;6.732;2022-11-20T12:27:44;30.40;;;13.70;;
66619;SDS011;53484;51.356;6.732;2022-11-20T12:30:14;26.77;;;12.40;;
66619;SDS011;53484;51.356;6.732;2022-11-20T12:32:45;33.38;;;15.25;;
66619;SDS011;53484;51.356;6.732;2022-11-20T12:35:20;29.10;;;13.90;;
66619;SDS011;53484;51.356;6.732;2022-11-20T12:37:52;30.40;;;14.15;;
66619;SDS011;53484;51.356;6.732;2022-11-20T12:40:27;34.63;;;18.70;;
66619;SDS011;53484;51.356;6.732;2022-11-20T12:43:03;35.53;;;17.57;;
66619;SDS011;53484;51.356;6.732;2022-11-20T12:46:03;27.35;;;12.70;;
66619;SDS011;53484;51.356;6.732;2022-11-20T12:48:41;27.20;;;13.45;;
66619;SDS011;53484;51.356;6.732;2022-11-20T12:51:21;26.85;;;12.32;;
66619;SDS011;53484;51.356;6.732;2022-11-20T12:53:55;24.58;;;12.68;;
66619;SDS011;53484;51.356;6.732;2022-11-20T12:56:27;28.33;;;14.07;;
66619;SDS011;53484;51.356;6.732;2022-11-20T12:59:00;28.20;;;13.38;;
66619;SDS011;53484;51.356;6.732;2022-11-20T13:01:35;27.85;;;12.68;;
66619;SDS011;53484;51.356;6.732;2022-11-20T13:04:08;27.90;;;13.60;;
66619;SDS011;53484;51.356;6.732;2022-11-20T13:06:38;26.83;;;12.68;;
66619;SDS011;53484;51.356;6.732;2022-11-20T13:09:06;31.00;;;14.47;;
66619;SDS011;53484;51.356;6.732;2022-11-20T13:11:35;28.23;;;12.50;;
66619;SDS011;53484;51.356;6.732;2022-11-20T13:14:07;30.17;;;13.85;;
66619;SDS011;53484;51.356;6.732;2022-11-20T13:16:36;28.02;;;13.30;;
66619;SDS011;53484;51.356;6.732;2022-11-20T13:19:04;31.52;;;14.02;;
66619;SDS011;53484;51.356;6.732;2022-11-20T13:21:35;33.50;;;14.40;;
66619;SDS011;53484;51.356;6.732;2022-11-20T13:24:05;28.38;;;13.75;;
66619;SDS011;53484;51.356;6.732;2022-11-20T13:26:32;28.05;;;13.90;;
66619;SDS011;53484;51.356;6.732;2022-11-20T13:29:02;30.80;;;15.07;;
66619;SDS011;53484;51.356;6.732;2022-11-20T13:31:32;31.98;;;15.85;;
66619;SDS011;53484;51.356;6.732;2022-11-20T13:34:00;29.90;;;14.40;;
66619;SDS011;53484;51.356;6.732;2022-11-20T13:36:28;31.75;;;15.27;;
66619;SDS011;53484;51.356;6.732;2022-11-20T13:38:55;31.27;;;14.93;;
66619;SDS011;53484;51.356;6.732;2022-11-20T13:41:25;30.13;;;13.70;;
66619;SDS011;53484;51.356;6.732;2022-11-20T13:43:58;31.30;;;14.68;;
66619;SDS011;53484;51.356;6.732;2022-11-20T13:46:34;31.33;;;15.07;;
66619;SDS011;53484;51.356;6.732;2022-11-20T13:49:05;31.58;;;15.38;;
66619;SDS011;53484;51.356;6.732;2022-11-20T13:51:34;34.03;;;16.45;;
66619;SDS011;53484;51.356;6.732;2022-11-20T13:54:06;33.95;;;15.80;;
66619;SDS011;53484;51.356;6.732;2022-11-20T13:56:34;33.58;;;15.75;;
66619;SDS011;53484;51.356;6.732;2022-11-20T13:59:06;40.47;;;17.13;;
66619;SDS011;53484;51.356;6.732;2022-11-20T14:01:34;36.72;;;16.00;;
66619;SDS011;53484;51.356;6.732;2022-11-20T14:04:05;35.45;;;17.33;;
66619;SDS011;53484;51.356;6.732;2022-11-20T14:06:33;39.83;;;17.33;;
66619;SDS011;53484;51.356;6.732;2022-11-20T14:09:00;39.03;;;17.38;;
66619;SDS011;53484;51.356;6.732;2022-11-20T14:11:27;42.47;;;18.43;;
66619;SDS011;53484;51.356;6.732;2022-11-20T14:13:55;39.60;;;16.90;;
66619;SDS011;53484;51.356;6.732;2022-11-20T14:16:21;32.92;;;15.65;;
66619;SDS011;53484;51.356;6.732;2022-11-20T14:18:49;37.88;;;17.02;;
66619;SDS011;53484;51.356;6.732;2022-11-20T14:21:27;33.53;;;15.45;;
66619;SDS011;53484;51.356;6.732;2022-11-20T14:24:02;34.27;;;15.77;;
66619;SDS011;53484;51.356;6.732;2022-11-20T14:26:30;36.22;;;15.15;;
66619;SDS011;53484;51.356;6.732;2022-11-20T14:28:56;35.08;;;16.08;;
66619;SDS011;53484;51.356;6.732;2022-11-20T14:31:23;35.65;;;17.02;;